This is the latest recevied weather packets stored in our database for station/object I5EKX-13. If no packets are shown the sender has not sent any weather packets the latest 10 day(s).
| Time | Temp. | Humidity | Pressure | Rain* | Wind** | Luminosity | Snow |
|---|---|---|---|---|---|---|---|
| 1777249405 | 8.89° C | 84% | 1014.6 hPa | - | - | - | - |
| 1777248202 | 9.44° C | 82% | 1014.7 hPa | - | - | - | - |
| 1777246997 | 9.44° C | 82% | 1014.8 hPa | - | - | - | - |
| 1777245794 | 8.89° C | 83% | 1014.8 hPa | - | - | - | - |
| 1777244590 | 9.44° C | 82% | 1015 hPa | - | - | - | - |
| 1777243386 | 9.44° C | 82% | 1014.9 hPa | - | - | - | - |
| 1777242182 | 10° C | 81% | 1014.8 hPa | - | - | - | - |
| 1777240978 | 10° C | 81% | 1014.9 hPa | - | - | - | - |
| 1777239774 | 10.56° C | 81% | 1014.9 hPa | - | - | - | - |
| 1777238570 | 10.56° C | 80% | 1015 hPa | - | - | - | - |
| 1777237367 | 10.56° C | 81% | 1014.9 hPa | - | - | - | - |
| 1777236162 | 11.67° C | 79% | 1014.9 hPa | - | - | - | - |
| 1777234958 | 11.67° C | 79% | 1014.9 hPa | - | - | - | - |
| 1777233754 | 11.67° C | 79% | 1014.8 hPa | - | - | - | - |
| 1777232550 | 12.22° C | 78% | 1014.6 hPa | - | - | - | - |
| 1777231347 | 12.78° C | 77% | 1014.5 hPa | - | - | - | - |
| 1777230142 | 13.33° C | 76% | 1014.2 hPa | - | - | - | - |
| 1777228938 | 13.89° C | 76% | 1014.2 hPa | - | - | - | - |
| 1777227734 | 15° C | 74% | 1013.9 hPa | - | - | - | - |
| 1777226530 | 15.56° C | 72% | 1013.8 hPa | - | - | - | - |
| 1777225326 | 16.67° C | 69% | 1013.6 hPa | - | - | - | - |
| 1777224122 | 17.78° C | 65% | 1013.6 hPa | - | - | - | - |
| 1777222925 | 18.33° C | 65% | 1013.7 hPa | - | - | - | - |
| 1777221715 | 17.78° C | 65% | 1013.9 hPa | - | - | - | - |
| 1777220511 | 18.33° C | 63% | 1014 hPa | - | - | - | - |
* Rain since midnight (hover to see other rain measurements)
** Current wind speed in m/s (hover to see current wind gust speed)